Observation data for Floydada on 01/13/2021      Previous  Date  Next       Current Mesonet Observations  Soil Data  Daily Summary Page  Observations in Plain Language
KFLS 130600Z 23007KT M02/M03 A3016 RMK A01 T10231031  RH  095%=      5-min Rain = 0
KFLS 130605Z 23007KT M02/M03 A3016 RMK A01 T10231032  RH  095%=      5-min Rain = 0
KFLS 130610Z 23007KT M02/M03 A3016 RMK A01 T10241033  RH  095%=      5-min Rain = 0
KFLS 130615Z 24008KT M03/M03 A3016 RMK A01 T10251034  RH  095%=      5-min Rain = 0
KFLS 130620Z 24007KT M03/M04 A3016 RMK A01 T10291038  RH  094%=      5-min Rain = 0
KFLS 130625Z 24007KT M03/M04 A3016 RMK A01 T10311040  RH  094%=      5-min Rain = 0
KFLS 130630Z 25006KT M03/M04 A3016 RMK A01 T10341043  RH  094%=      5-min Rain = 0
KFLS 130635Z 25006KT M04/M05 A3016 RMK A01 T10371047  RH  094%=      5-min Rain = 0
KFLS 130640Z 24007KT M04/M05 A3016 RMK A01 T10371046  RH  095%=      5-min Rain = 0
KFLS 130645Z 25007KT M04/M05 A3016 RMK A01 T10381047  RH  095%=      5-min Rain = 0
KFLS 130650Z 25007KT M04/M05 A3016 RMK A01 T10381047  RH  095%=      5-min Rain = 0
KFLS 130655Z 25008KT M04/M05 A3015 RMK A01 T10381047  RH  095%=      5-min Rain = 0
KFLS 130700Z 25007KT M04/M05 A3015 RMK A01 T10391048  RH  095%=      5-min Rain = 0
KFLS 130705Z 25007KT M04/M05 A3015 RMK A01 T10391048  RH  095%=      5-min Rain = 0
KFLS 130710Z 25007KT M04/M05 A3015 RMK A01 T10391048  RH  094%=      5-min Rain = 0
KFLS 130715Z 25007KT M04/M05 A3014 RMK A01 T10401050  RH  094%=      5-min Rain = 0
KFLS 130720Z 25008KT M04/M05 A3015 RMK A01 T10421052  RH  094%=      5-min Rain = 0
KFLS 130725Z 25008KT M04/M05 A3015 RMK A01 T10441053  RH  094%=      5-min Rain = 0
KFLS 130730Z 25008KT M04/M05 A3015 RMK A01 T10431052  RH  094%=      5-min Rain = 0
KFLS 130735Z 25008KT M04/M05 A3015 RMK A01 T10421051  RH  094%=      5-min Rain = 0
KFLS 130740Z 25008KT M04/M05 A3015 RMK A01 T10431053  RH  094%=      5-min Rain = 0
KFLS 130745Z 25008KT M04/M05 A3015 RMK A01 T10421052  RH  094%=      5-min Rain = 0
KFLS 130750Z 25008KT M04/M05 A3015 RMK A01 T10411051  RH  094%=      5-min Rain = 0
KFLS 130755Z 26009KT M04/M05 A3015 RMK A01 T10411052  RH  093%=      5-min Rain = 0
KFLS 130800Z 26009KT M04/M05 A3015 RMK A01 T10411053  RH  093%=      5-min Rain = 0
KFLS 130805Z 26009KT M04/M05 A3015 RMK A01 T10421054  RH  092%=      5-min Rain = 0
KFLS 130810Z 26009KT M04/M05 A3015 RMK A01 T10391051  RH  093%=      5-min Rain = 0
KFLS 130815Z 25008KT M04/M05 A3015 RMK A01 T10381050  RH  092%=      5-min Rain = 0
KFLS 130820Z 25007KT M04/M05 A3015 RMK A01 T10391053  RH  091%=      5-min Rain = 0
KFLS 130825Z 25007KT M04/M06 A3015 RMK A01 T10421056  RH  091%=      5-min Rain = 0
KFLS 130830Z 25008KT M05/M06 A3015 RMK A01 T10471061  RH  091%=      5-min Rain = 0
KFLS 130835Z 25008KT M04/M05 A3015 RMK A01 T10391052  RH  092%=      5-min Rain = 0
KFLS 130840Z 24008KT M04/M05 A3015 RMK A01 T10381053  RH  091%=      5-min Rain = 0
KFLS 130845Z 24008KT M04/M05 A3014 RMK A01 T10361051  RH  090%=      5-min Rain = 0
KFLS 130850Z 24009KT M03/M05 A3014 RMK A01 T10311047  RH  090%=      5-min Rain = 0
KFLS 130855Z 24009KT M03/M05 A3014 RMK A01 T10281045  RH  089%=      5-min Rain = 0
KFLS 130900Z 25009KT M03/M05 A3014 RMK A01 T10291047  RH  088%=      5-min Rain = 0
KFLS 130905Z 24008KT M03/M05 A3014 RMK A01 T10291047  RH  088%=      5-min Rain = 0
KFLS 130910Z 25009KT M03/M05 A3014 RMK A01 T10331052  RH  088%=      5-min Rain = 0
KFLS 130915Z 25008KT M04/M06 A3014 RMK A01 T10391057  RH  088%=      5-min Rain = 0
KFLS 130920Z 25008KT M04/M06 A3014 RMK A01 T10431060  RH  089%=      5-min Rain = 0
KFLS 130925Z 24008KT M04/M06 A3014 RMK A01 T10421058  RH  090%=      5-min Rain = 0
KFLS 130930Z 25008KT M04/M06 A3014 RMK A01 T10421058  RH  090%=      5-min Rain = 0
KFLS 130935Z 25008KT M05/M06 A3013 RMK A01 T10461062  RH  090%=      5-min Rain = 0
KFLS 130940Z 25008KT M05/M06 A3013 RMK A01 T10471062  RH  090%=      5-min Rain = 0
KFLS 130945Z 24009KT M04/M06 A3012 RMK A01 T10421056  RH  091%=      5-min Rain = 0
KFLS 130950Z 24009KT M04/M05 A3012 RMK A01 T10381054  RH  090%=      5-min Rain = 0
KFLS 130955Z 25009KT M04/M06 A3012 RMK A01 T10381056  RH  089%=      5-min Rain = 0
KFLS 131000Z 25009KT M04/M06 A3012 RMK A01 T10381056  RH  088%=      5-min Rain = 0
KFLS 131005Z 25008KT M04/M06 A3011 RMK A01 T10401058  RH  088%=      5-min Rain = 0
KFLS 131010Z 25008KT M04/M06 A3011 RMK A01 T10421060  RH  088%=      5-min Rain = 0
KFLS 131015Z 24008KT M04/M06 A301 RMK A01 T10411059  RH  088%=      5-min Rain = 0
KFLS 131020Z 25008KT M04/M06 A301 RMK A01 T10441063  RH  088%=      5-min Rain = 0
KFLS 131025Z 25008KT M05/M07 A301 RMK A01 T10481066  RH  088%=      5-min Rain = 0
KFLS 131030Z 24008KT M05/M07 A3009 RMK A01 T10481065  RH  089%=      5-min Rain = 0
KFLS 131035Z 24008KT M05/M06 A3009 RMK A01 T10451062  RH  089%=      5-min Rain = 0
KFLS 131040Z 24009KT M04/M06 A3009 RMK A01 T10431060  RH  089%=      5-min Rain = 0
KFLS 131045Z 23008KT M04/M06 A3009 RMK A01 T10391057  RH  088%=      5-min Rain = 0
KFLS 131050Z 23008KT M04/M06 A3008 RMK A01 T10371056  RH  088%=      5-min Rain = 0
KFLS 131055Z 24009KT M03/M05 A3008 RMK A01 T10331053  RH  087%=      5-min Rain = 0
KFLS 131100Z 23009KT M03/M05 A3008 RMK A01 T10321054  RH  086%=      5-min Rain = 0
KFLS 131105Z 23009KT M03/M05 A3007 RMK A01 T10321054  RH  086%=      5-min Rain = 0
KFLS 131110Z 24010KT M03/M06 A3007 RMK A01 T10331055  RH  085%=      5-min Rain = 0
KFLS 131115Z 24010KT M04/M06 A3007 RMK A01 T10371059  RH  086%=      5-min Rain = 0
KFLS 131120Z 25010KT M04/M06 A3007 RMK A01 T10401061  RH  087%=      5-min Rain = 0
KFLS 131125Z 25011KT M04/M06 A3007 RMK A01 T10421062  RH  087%=      5-min Rain = 0
KFLS 131130Z 25010KT M05/M06 A3007 RMK A01 T10451063  RH  088%=      5-min Rain = 0
KFLS 131135Z 26009KT M05/M06 A3008 RMK A01 T10461064  RH  088%=      5-min Rain = 0
KFLS 131140Z 26009KT M05/M06 A3008 RMK A01 T10461064  RH  088%=      5-min Rain = 0
KFLS 131145Z 25009KT M04/M06 A3008 RMK A01 T10431061  RH  088%=      5-min Rain = 0
KFLS 131150Z 25009KT M04/M06 A3008 RMK A01 T10401059  RH  087%=      5-min Rain = 0
KFLS 131155Z 26009KT M04/M06 A3008 RMK A01 T10411061  RH  086%=      5-min Rain = 0
KFLS 131200Z 25009KT M04/M06 A3008 RMK A01 T10421062  RH  086%=      5-min Rain = 0
KFLS 131205Z 25008KT M04/M06 A3008 RMK A01 T10411062  RH  086%=      5-min Rain = 0
KFLS 131210Z 25008KT M04/M06 A3007 RMK A01 T10421063  RH  086%=      5-min Rain = 0
KFLS 131215Z 25008KT M04/M06 A3007 RMK A01 T10421063  RH  086%=      5-min Rain = 0
KFLS 131220Z 25008KT M04/M07 A3007 RMK A01 T10441065  RH  086%=      5-min Rain = 0
KFLS 131225Z 24008KT M04/M06 A3006 RMK A01 T10421063  RH  086%=      5-min Rain = 0
KFLS 131230Z 24010KT M04/M06 A3006 RMK A01 T10361059  RH  085%=      5-min Rain = 0
KFLS 131235Z 25009KT M04/M06 A3007 RMK A01 T10371061  RH  084%=      5-min Rain = 0
KFLS 131240Z 24009KT M04/M06 A3006 RMK A01 T10371061  RH  084%=      5-min Rain = 0
KFLS 131245Z 25009KT M04/M06 A3006 RMK A01 T10361061  RH  084%=      5-min Rain = 0
KFLS 131250Z 24009KT M04/M06 A3006 RMK A01 T10371061  RH  084%=      5-min Rain = 0
KFLS 131255Z 24009KT M04/M06 A3006 RMK A01 T10371062  RH  084%=      5-min Rain = 0
KFLS 131300Z 24009KT M04/M06 A3006 RMK A01 T10391063  RH  084%=      5-min Rain = 0
KFLS 131305Z 24010KT M04/M06 A3006 RMK A01 T10381063  RH  084%=      5-min Rain = 0
KFLS 131310Z 24011KT M04/M06 A3005 RMK A01 T10361062  RH  083%=      5-min Rain = 0
KFLS 131315Z 24012KT M03/M06 A3005 RMK A01 T10341061  RH  083%=      5-min Rain = 0
KFLS 131320Z 23011KT M03/M06 A3004 RMK A01 T10321059  RH  082%=      5-min Rain = 0
KFLS 131325Z 24011KT M03/M06 A3005 RMK A01 T10311060  RH  081%=      5-min Rain = 0
KFLS 131330Z 23010KT M03/M06 A3005 RMK A01 T10341062  RH  082%=      5-min Rain = 0
KFLS 131335Z 23010KT M04/M06 A3005 RMK A01 T10371063  RH  083%=      5-min Rain = 0
KFLS 131340Z 24011KT M04/M06 A3005 RMK A01 T10381063  RH  084%=      5-min Rain = 0
KFLS 131345Z 24011KT M04/M06 A3005 RMK A01 T10381063  RH  084%=      5-min Rain = 0
KFLS 131350Z 24012KT M04/M06 A3005 RMK A01 T10381062  RH  084%=      5-min Rain = 0
KFLS 131355Z 24010KT M04/M06 A3005 RMK A01 T10391063  RH  084%=      5-min Rain = 0
KFLS 131400Z 24010KT M04/M06 A3005 RMK A01 T10411064  RH  085%=      5-min Rain = 0
KFLS 131405Z 24010KT M04/M06 A3006 RMK A01 T10411064  RH  085%=      5-min Rain = 0
KFLS 131410Z 24010KT M04/M06 A3006 RMK A01 T10401063  RH  085%=      5-min Rain = 0
KFLS 131415Z 25009KT M04/M06 A3006 RMK A01 T10381061  RH  085%=      5-min Rain = 0
KFLS 131420Z 25009KT M04/M06 A3006 RMK A01 T10361059  RH  085%=      5-min Rain = 0
KFLS 131425Z 25009KT M03/M06 A3005 RMK A01 T10341057  RH  085%=      5-min Rain = 0
KFLS 131430Z 25009KT M03/M06 A3005 RMK A01 T10321055  RH  085%=      5-min Rain = 0
KFLS 131435Z 25010KT M03/M05 A3005 RMK A01 T10271051  RH  085%=      5-min Rain = 0
KFLS 131440Z 25010KT M02/M05 A3005 RMK A01 T10221047  RH  084%=      5-min Rain = 0
KFLS 131445Z 25010KT M02/M04 A3004 RMK A01 T10181044  RH  083%=      5-min Rain = 0
KFLS 131450Z 24012KT M01/M04 A3004 RMK A01 T10131043  RH  081%=      5-min Rain = 0
KFLS 131455Z 24012KT M01/M04 A3004 RMK A01 T10111043  RH  079%=      5-min Rain = 0
KFLS 131500Z 24012KT M01/M04 A3004 RMK A01 T10081043  RH  078%=      5-min Rain = 0
KFLS 131505Z 24012KT M00/M04 A3004 RMK A01 T10041039  RH  078%=      5-min Rain = 0
KFLS 131510Z 25012KT M00/M04 A3005 RMK A01 T10011035  RH  078%=      5-min Rain = 0
KFLS 131515Z 25012KT 00/M04 A3004 RMK A01 T00011035  RH  078%=      5-min Rain = 0
KFLS 131520Z 25012KT 00/M04 A3004 RMK A01 T00011036  RH  077%=      5-min Rain = 0
KFLS 131525Z 25012KT 01/M03 A3004 RMK A01 T00051033  RH  076%=      5-min Rain = 0
KFLS 131530Z 25012KT 01/M03 A3004 RMK A01 T00071032  RH  076%=      5-min Rain = 0
KFLS 131535Z 25013KT 01/M03 A3004 RMK A01 T00081032  RH  076%=      5-min Rain = 0
KFLS 131540Z 25012KT 01/M03 A3004 RMK A01 T00081032  RH  076%=      5-min Rain = 0
KFLS 131545Z 25013KT 01/M03 A3005 RMK A01 T00081031  RH  076%=      5-min Rain = 0
KFLS 131550Z 25011KT 01/M03 A3005 RMK A01 T00071030  RH  077%=      5-min Rain = 0
KFLS 131555Z 24010KT 01/M03 A3005 RMK A01 T00121026  RH  077%=      5-min Rain = 0
KFLS 131600Z 25012KT 02/M03 A3005 RMK A01 T00191025  RH  073%=      5-min Rain = 0
KFLS 131605Z 24013KT 02/M03 A3005 RMK A01 T00211028  RH  071%=      5-min Rain = 0
KFLS 131610Z 24012KT 02/M03 A3005 RMK A01 T00191029  RH  071%=      5-min Rain = 0
KFLS 131615Z 24012KT 02/M03 A3005 RMK A01 T00211026  RH  072%=      5-min Rain = 0
KFLS 131620Z 24012KT 02/M03 A3005 RMK A01 T00221027  RH  071%=      5-min Rain = 0
KFLS 131625Z 24012KT 02/M03 A3005 RMK A01 T00211028  RH  071%=      5-min Rain = 0
KFLS 131630Z 25013KT 03/M02 A3005 RMK A01 T00271024  RH  070%=      5-min Rain = 0
KFLS 131635Z 24014KT 03/M02 A3004 RMK A01 T00311023  RH  068%=      5-min Rain = 0
KFLS 131640Z 25014KT 03/M03 A3004 RMK A01 T00331025  RH  067%=      5-min Rain = 0
KFLS 131645Z 25015KT 04/M03 A3005 RMK A01 T00391025  RH  064%=      5-min Rain = 0
KFLS 131650Z 25016KT 05/M02 A3004 RMK A01 T00461022  RH  062%=      5-min Rain = 0
KFLS 131655Z 25018KT 04/M03 A3004 RMK A01 T00441029  RH  060%=      5-min Rain = 0
KFLS 131700Z 25016KT 05/M03 A3004 RMK A01 T00511026  RH  058%=      5-min Rain = 0
KFLS 131705Z 26017KT 05/M03 A3004 RMK A01 T00541027  RH  056%=      5-min Rain = 0
KFLS 131710Z 26017G22KT 06/M03 A3004 RMK A01 T00591029  RH  054%=      5-min Rain = 0
KFLS 131715Z 26017G23KT 06/M03 A3004 RMK A01 T00621029  RH  052%=      5-min Rain = 0
KFLS 131720Z 25018G23KT 07/M03 A3003 RMK A01 T00651033  RH  050%=      5-min Rain = 0
KFLS 131725Z 26016KT 07/M03 A3002 RMK A01 T00691029  RH  050%=      5-min Rain = 0
KFLS 131730Z 26018KT 07/M03 A3002 RMK A01 T00711031  RH  049%=      5-min Rain = 0
KFLS 131735Z 26019KT 07/M03 A3002 RMK A01 T00741033  RH  047%=      5-min Rain = 0
KFLS 131740Z 27019KT 08/M04 A3002 RMK A01 T00791035  RH  045%=      5-min Rain = 0
KFLS 131745Z 26017G22KT 08/M03 A3003 RMK A01 T00821034  RH  044%=      5-min Rain = 0
KFLS 131750Z 26017G22KT 08/M03 A3002 RMK A01 T00841032  RH  044%=      5-min Rain = 0
KFLS 131755Z 26017G22KT 09/M03 A3002 RMK A01 T00851032  RH  044%=      5-min Rain = 0
KFLS 131800Z 25018KT 09/M03 A3001 RMK A01 T00891031  RH  043%=      5-min Rain = 0
KFLS 131805Z 25018KT 09/M03 A30 RMK A01 T00911031  RH  042%=      5-min Rain = 0
KFLS 131810Z 26018KT 09/M04 A30 RMK A01 T00921036  RH  041%=      5-min Rain = 0
KFLS 131815Z 25019KT 09/M04 A2999 RMK A01 T00901042  RH  039%=      5-min Rain = 0
KFLS 131820Z 26017KT 10/M03 A2999 RMK A01 T00961034  RH  040%=      5-min Rain = 0
KFLS 131825Z 26016KT 10/M03 A2999 RMK A01 T00961033  RH  041%=      5-min Rain = 0
KFLS 131830Z 26016G21KT 09/M03 A2998 RMK A01 T00911034  RH  042%=      5-min Rain = 0
KFLS 131835Z 26015KT 09/M03 A2998 RMK A01 T00941031  RH  042%=      5-min Rain = 0
KFLS 131840Z 25016G21KT 10/M03 A2997 RMK A01 T00991029  RH  041%=      5-min Rain = 0
KFLS 131845Z 25017KT 10/M03 A2997 RMK A01 T01001028  RH  041%=      5-min Rain = 0
KFLS 131850Z 25017KT 10/M03 A2997 RMK A01 T01001029  RH  041%=      5-min Rain = 0
KFLS 131855Z 26016KT 10/M03 A2996 RMK A01 T01031026  RH  041%=      5-min Rain = 0
KFLS 131900Z 26015KT 10/M03 A2996 RMK A01 T01041026  RH  041%=      5-min Rain = 0
KFLS 131905Z 26015G20KT 11/M02 A2996 RMK A01 T01101022  RH  040%=      5-min Rain = 0
KFLS 131910Z 26015G20KT 11/M02 A2996 RMK A01 T01111023  RH  040%=      5-min Rain = 0
KFLS 131915Z 26014G19KT 11/M02 A2995 RMK A01 T01121022  RH  040%=      5-min Rain = 0
KFLS 131920Z 26014KT 12/M03 A2994 RMK A01 T01161028  RH  037%=      5-min Rain = 0
KFLS 131925Z 24012KT 12/M02 A2993 RMK A01 T01161020  RH  039%=      5-min Rain = 0
KFLS 131930Z 24012KT 11/M03 A2992 RMK A01 T01141025  RH  038%=      5-min Rain = 0
KFLS 131935Z 24012KT 12/M02 A2992 RMK A01 T01191020  RH  038%=      5-min Rain = 0
KFLS 131940Z 24013KT 12/M02 A2992 RMK A01 T01171020  RH  039%=      5-min Rain = 0
KFLS 131945Z 24013KT 12/M02 A2992 RMK A01 T01161021  RH  039%=      5-min Rain = 0
KFLS 131950Z 24014KT 12/M02 A2992 RMK A01 T01191022  RH  038%=      5-min Rain = 0
KFLS 131955Z 25014KT 12/M02 A2992 RMK A01 T01231021  RH  037%=      5-min Rain = 0
KFLS 132000Z 25013KT 12/M02 A2991 RMK A01 T01221021  RH  037%=      5-min Rain = 0
KFLS 132005Z 24012KT 13/M02 A2991 RMK A01 T01261020  RH  037%=      5-min Rain = 0
KFLS 132010Z 24011G17KT 13/M03 A2991 RMK A01 T01301026  RH  034%=      5-min Rain = 0
KFLS 132015Z 25012KT 13/M03 A299 RMK A01 T01321031  RH  032%=      5-min Rain = 0
KFLS 132020Z 26013KT 13/M03 A299 RMK A01 T01341031  RH  032%=      5-min Rain = 0
KFLS 132025Z 26012KT 14/M04 A299 RMK A01 T01361036  RH  030%=      5-min Rain = 0
KFLS 132030Z 24011KT 14/M03 A2989 RMK A01 T01351032  RH  032%=      5-min Rain = 0
KFLS 132035Z 24011KT 14/M03 A2989 RMK A01 T01371028  RH  032%=      5-min Rain = 0
KFLS 132040Z 25012KT 14/M03 A2989 RMK A01 T01361029  RH  032%=      5-min Rain = 0
KFLS 132045Z 25012KT 14/M03 A2988 RMK A01 T01381029  RH  032%=      5-min Rain = 0
KFLS 132050Z 24012KT 13/M03 A2988 RMK A01 T01341030  RH  032%=      5-min Rain = 0
KFLS 132055Z 25011KT 14/M03 A2988 RMK A01 T01361028  RH  032%=      5-min Rain = 0
KFLS 132100Z 25012KT 14/M03 A2988 RMK A01 T01391028  RH  032%=      5-min Rain = 0
KFLS 132105Z 26012KT 14/M03 A2988 RMK A01 T01411031  RH  030%=      5-min Rain = 0
KFLS 132110Z 26011KT 15/M04 A2988 RMK A01 T01461035  RH  029%=      5-min Rain = 0
KFLS 132115Z 25012KT 15/M04 A2988 RMK A01 T01461035  RH  029%=      5-min Rain = 0
KFLS 132120Z 26011KT 15/M04 A2988 RMK A01 T01481036  RH  028%=      5-min Rain = 0
KFLS 132125Z 26011KT 15/M04 A2988 RMK A01 T01491040  RH  027%=      5-min Rain = 0
KFLS 132130Z 27012KT 15/M04 A2988 RMK A01 T01521043  RH  026%=      5-min Rain = 0
KFLS 132135Z 27011KT 15/M04 A2988 RMK A01 T01531043  RH  026%=      5-min Rain = 0
KFLS 132140Z 28011KT 16/M04 A2988 RMK A01 T01551038  RH  026%=      5-min Rain = 0
KFLS 132145Z 28011KT 15/M04 A2988 RMK A01 T01541039  RH  026%=      5-min Rain = 0
KFLS 132150Z 26012KT 15/M04 A2988 RMK A01 T01531041  RH  026%=      5-min Rain = 0
KFLS 132155Z 27012KT 16/M04 A2988 RMK A01 T01551041  RH  026%=      5-min Rain = 0
KFLS 132200Z 27011KT 16/M04 A2988 RMK A01 T01571041  RH  026%=      5-min Rain = 0
KFLS 132205Z 26010KT 15/M04 A2988 RMK A01 T01521040  RH  027%=      5-min Rain = 0
KFLS 132210Z 27010KT 15/M04 A2988 RMK A01 T01481035  RH  028%=      5-min Rain = 0
KFLS 132215Z 27010KT 14/M03 A2988 RMK A01 T01431034  RH  030%=      5-min Rain = 0
KFLS 132220Z 27009KT 14/M03 A2988 RMK A01 T01411029  RH  031%=      5-min Rain = 0
KFLS 132225Z 27008KT 14/M03 A2988 RMK A01 T01421025  RH  032%=      5-min Rain = 0
KFLS 132230Z 27008KT 15/M02 A2988 RMK A01 T01471020  RH  032%=      5-min Rain = 0
KFLS 132235Z 26008KT 15/M02 A2987 RMK A01 T01531019  RH  031%=      5-min Rain = 0
KFLS 132240Z 27009KT 16/M02 A2987 RMK A01 T01571022  RH  030%=      5-min Rain = 0
KFLS 132245Z 26010KT 15/M02 A2987 RMK A01 T01541024  RH  030%=      5-min Rain = 0
KFLS 132250Z 27010KT 15/M02 A2987 RMK A01 T01531021  RH  030%=      5-min Rain = 0
KFLS 132255Z 26007KT 15/M02 A2987 RMK A01 T01541018  RH  031%=      5-min Rain = 0
KFLS 132300Z 26007KT 15/M02 A2987 RMK A01 T01481018  RH  032%=      5-min Rain = 0
KFLS 132305Z 26007KT 14/M02 A2987 RMK A01 T01401017  RH  034%=      5-min Rain = 0
KFLS 132310Z 26007KT 14/M02 A2987 RMK A01 T01371015  RH  035%=      5-min Rain = 0
KFLS 132315Z 25007KT 13/M01 A2986 RMK A01 T01341012  RH  037%=      5-min Rain = 0
KFLS 132320Z 26007KT 13/M01 A2986 RMK A01 T01261012  RH  039%=      5-min Rain = 0
KFLS 132325Z 26007KT 12/M01 A2986 RMK A01 T01171010  RH  042%=      5-min Rain = 0
KFLS 132330Z 25007KT 11/M01 A2986 RMK A01 T01081006  RH  046%=      5-min Rain = 0
KFLS 132335Z 24006KT 11/M00 A2986 RMK A01 T01091001  RH  047%=      5-min Rain = 0
KFLS 132340Z 24007KT 11/M01 A2986 RMK A01 T01121007  RH  044%=      5-min Rain = 0
KFLS 132345Z 23006KT 11/M01 A2986 RMK A01 T01101010  RH  044%=      5-min Rain = 0
KFLS 132350Z 24007KT 11/M01 A2986 RMK A01 T01081012  RH  044%=      5-min Rain = 0
KFLS 132355Z 24007KT 10/M02 A2986 RMK A01 T01031015  RH  044%=      5-min Rain = 0
KFLS 140000Z 24007KT 10/M01 A2986 RMK A01 T00981013  RH  046%=      5-min Rain = 0
KFLS 140005Z 23007KT 09/M01 A2987 RMK A01 T00921011  RH  049%=      5-min Rain = 0
KFLS 140010Z 22006KT 09/M01 A2987 RMK A01 T00891008  RH  051%=      5-min Rain = 0
KFLS 140015Z 23006KT 09/M01 A2987 RMK A01 T00871006  RH  052%=      5-min Rain = 0
KFLS 140020Z 22006KT 08/00 A2988 RMK A01 T008100-0  RH  057%=      5-min Rain = 0
KFLS 140025Z 23006KT 07/01 A2988 RMK A01 T00740012  RH  065%=      5-min Rain = 0
KFLS 140030Z 24007KT 07/02 A2988 RMK A01 T00710019  RH  071%=      5-min Rain = 0
KFLS 140035Z 23008KT 07/02 A2988 RMK A01 T00680018  RH  072%=      5-min Rain = 0
KFLS 140040Z 23007KT 07/02 A2988 RMK A01 T00680020  RH  073%=      5-min Rain = 0
KFLS 140045Z 24009KT 07/02 A2988 RMK A01 T00680023  RH  074%=      5-min Rain = 0
KFLS 140050Z 24009KT 07/02 A2988 RMK A01 T00660022  RH  074%=      5-min Rain = 0
KFLS 140055Z 24008KT 06/02 A2988 RMK A01 T00600019  RH  076%=      5-min Rain = 0
KFLS 140100Z 22009KT 06/02 A2988 RMK A01 T00620021  RH  076%=      5-min Rain = 0
KFLS 140105Z 22009KT 07/02 A2987 RMK A01 T00680023  RH  074%=      5-min Rain = 0
KFLS 140110Z 23009KT 07/02 A2987 RMK A01 T00700023  RH  073%=      5-min Rain = 0
KFLS 140115Z 22010KT 07/02 A2987 RMK A01 T00700023  RH  073%=      5-min Rain = 0
KFLS 140120Z 22010KT 07/02 A2987 RMK A01 T00690022  RH  073%=      5-min Rain = 0
KFLS 140125Z 22010KT 07/02 A2987 RMK A01 T00690021  RH  072%=      5-min Rain = 0
KFLS 140130Z 23009KT 07/02 A2987 RMK A01 T00660019  RH  072%=      5-min Rain = 0
KFLS 140135Z 23008KT 06/02 A2986 RMK A01 T00620017  RH  074%=      5-min Rain = 0
KFLS 140140Z 23008KT 06/02 A2986 RMK A01 T00590016  RH  075%=      5-min Rain = 0
KFLS 140145Z 23008KT 06/02 A2986 RMK A01 T00550015  RH  076%=      5-min Rain = 0
KFLS 140150Z 23008KT 05/01 A2986 RMK A01 T00540013  RH  076%=      5-min Rain = 0
KFLS 140155Z 23008KT 05/01 A2986 RMK A01 T00530014  RH  076%=      5-min Rain = 0
KFLS 140200Z 23009KT 05/01 A2986 RMK A01 T00520013  RH  077%=      5-min Rain = 0
KFLS 140205Z 23009KT 05/01 A2985 RMK A01 T00500013  RH  078%=      5-min Rain = 0
KFLS 140210Z 23009KT 05/01 A2985 RMK A01 T00500013  RH  078%=      5-min Rain = 0
KFLS 140215Z 22009KT 05/01 A2985 RMK A01 T00480012  RH  079%=      5-min Rain = 0
KFLS 140220Z 22010KT 05/01 A2985 RMK A01 T00480013  RH  079%=      5-min Rain = 0
KFLS 140225Z 22009KT 05/01 A2984 RMK A01 T00480013  RH  079%=      5-min Rain = 0
KFLS 140230Z 22008KT 05/01 A2984 RMK A01 T00460012  RH  080%=      5-min Rain = 0
KFLS 140235Z 22009KT 05/01 A2984 RMK A01 T00450012  RH  080%=      5-min Rain = 0
KFLS 140240Z 23010KT 04/01 A2984 RMK A01 T00430011  RH  081%=      5-min Rain = 0
KFLS 140245Z 23010KT 04/01 A2984 RMK A01 T00410010  RH  081%=      5-min Rain = 0
KFLS 140250Z 24010KT 04/01 A2984 RMK A01 T00400010  RH  082%=      5-min Rain = 0
KFLS 140255Z 24010KT 04/01 A2984 RMK A01 T00350008  RH  083%=      5-min Rain = 0
KFLS 140300Z 24010KT 03/01 A2984 RMK A01 T00340008  RH  084%=      5-min Rain = 0
KFLS 140305Z 24010KT 03/01 A2984 RMK A01 T00340008  RH  084%=      5-min Rain = 0
KFLS 140310Z 24010KT 03/01 A2983 RMK A01 T00330007  RH  084%=      5-min Rain = 0
KFLS 140315Z 23009KT 03/01 A2983 RMK A01 T00310006  RH  085%=      5-min Rain = 0
KFLS 140320Z 23008KT 03/01 A2983 RMK A01 T00320007  RH  084%=      5-min Rain = 0
KFLS 140325Z 24008KT 03/01 A2983 RMK A01 T00320006  RH  084%=      5-min Rain = 0
KFLS 140330Z 24008KT 03/01 A2983 RMK A01 T00290005  RH  085%=      5-min Rain = 0
KFLS 140335Z 24008KT 03/00 A2983 RMK A01 T00260003  RH  086%=      5-min Rain = 0
KFLS 140340Z 25008KT 02/00 A2983 RMK A01 T00220001  RH  087%=      5-min Rain = 0
KFLS 140345Z 25007KT 02/M00 A2983 RMK A01 T00191001  RH  088%=      5-min Rain = 0
KFLS 140350Z 24007KT 02/00 A2983 RMK A01 T001900-0  RH  088%=      5-min Rain = 0
KFLS 140355Z 24007KT 02/M00 A2983 RMK A01 T00181002  RH  088%=      5-min Rain = 0
KFLS 140400Z 25007KT 02/M00 A2983 RMK A01 T00161003  RH  088%=      5-min Rain = 0
KFLS 140405Z 25007KT 01/M01 A2983 RMK A01 T00131005  RH  089%=      5-min Rain = 0
KFLS 140410Z 25008KT 01/M00 A2983 RMK A01 T00141004  RH  089%=      5-min Rain = 0
KFLS 140415Z 25009KT 01/M00 A2983 RMK A01 T00131004  RH  089%=      5-min Rain = 0
KFLS 140420Z 26009KT 01/M00 A2983 RMK A01 T00131004  RH  089%=      5-min Rain = 0
KFLS 140425Z 26008KT 01/M01 A2983 RMK A01 T00101007  RH  089%=      5-min Rain = 0
KFLS 140430Z 26007KT 00/M01 A2983 RMK A01 T00031013  RH  090%=      5-min Rain = 0
KFLS 140435Z 26007KT 00/M01 A2983 RMK A01 T00011013  RH  091%=      5-min Rain = 0
KFLS 140440Z 26006KT M00/M02 A2983 RMK A01 T10011015  RH  091%=      5-min Rain = 0
KFLS 140445Z 26007KT M00/M02 A2983 RMK A01 T10031016  RH  092%=      5-min Rain = 0
KFLS 140450Z 26007KT M00/M02 A2982 RMK A01 T10021015  RH  092%=      5-min Rain = 0
KFLS 140455Z 26008KT M00/M02 A2982 RMK A01 T10031016  RH  092%=      5-min Rain = 0
KFLS 140500Z 26008KT M00/M02 A2981 RMK A01 T10021015  RH  092%=      5-min Rain = 0
KFLS 140505Z 26007KT 00/M01 A2981 RMK A01 T00011012  RH  092%=      5-min Rain = 0
KFLS 140510Z 26007KT 00/M01 A2981 RMK A01 T00041010  RH  091%=      5-min Rain = 0
KFLS 140515Z 26006KT 00/M01 A2981 RMK A01 T00031012  RH  090%=      5-min Rain = 0
KFLS 140520Z 26005KT 00/M01 A2981 RMK A01 T00021014  RH  090%=      5-min Rain = 0
KFLS 140525Z 27006KT 00/M01 A2981 RMK A01 T00011014  RH  091%=      5-min Rain = 0
KFLS 140530Z 27008KT 00/M01 A2981 RMK A01 T00011014  RH  091%=      5-min Rain = 0
KFLS 140535Z 28007KT 00/01 A2982 RMK A01 T00000-14  RH  091%=      5-min Rain = 0
KFLS 140540Z 27008KT 00/01 A2983 RMK A01 T00-00-14  RH  092%=      5-min Rain = 0
KFLS 140545Z 26007KT 01/M01 A2982 RMK A01 T00061008  RH  092%=      5-min Rain = 0
KFLS 140550Z 26007KT 01/M01 A2982 RMK A01 T00091007  RH  090%=      5-min Rain = 0
KFLS 140555Z 26008KT 01/M01 A2982 RMK A01 T00101008  RH  089%=      5-min Rain = 0

Page generated in 0.0322 seconds.